Accueil
METAR-TAF:

METAR-TAF

Aéroports :

Farnborough, Angleterre

latitude: 51-17N, longitude: 000-46W, altitude: 65 m

Observation

Le bulletin a été fait il y a 28 minutes, à 06:20 UTC
Vent 2 kt de sud-ouest
Température 19°C
Humidité 83%
Pression 1015 hPa
Visibilité 10 km ou plus

METAR: EGLF 110620Z AUTO 23002KT 9999 NCD 19/16 Q1015

Heure: 07:48 (06:48 UTC)

Prévision

Le bulletin a été fait il y a 54 minutes, à 05:54 UTC
Prévision valable du 11 à 06 UTC au 11 à 15 UTC
Vent 3 kt de direction variable
Visibilité 10 km ou plus
pas de nuages en-dessous de 1500 mètres et pas de cumulonimbus.
Probabilité 30% :
Temporairement
du 11 à 06 UTC au 11 à 15 UTC
Visibilité: 7000 m
averses de pluie, orage, pluie
Probabilité 30% :
Temporairement
du 11 à 12 UTC au 11 à 15 UTC
Vent 10 kt de sud

TAF: EGLF 110554Z 1106/1115 VRB03KT CAVOK PROB30 TEMPO 1106/1115 7000 SHRA TSRA PROB30 TEMPO 1112/1115 18010KT

Observations et prévisions météorologiques de plus de 4000 aéroports (messages METAR et TAF).

Les stations disponibles sont représentées par des disques jaunes et rouges sur la carte.

Passer la souris dessus pour voir le nom de la station.

Cliquer dessus pour voir les observations et prévisions météorologiques.

Pour changer de carte: cliquez sur les boutons verts avec une croix noire pour zoomer, sur le bouton vert avec un tiret pour effectuer un zoom arrière, ou sur les flèches vertes pour les cartes adjacentes.


METAR-TAF: